TimeEDT,TemperatureF,Dew PointF,Humidity,Sea Level PressureIn,VisibilityMPH,Wind Direction,Wind SpeedMPH,Gust SpeedMPH,PrecipitationIn,Events,Conditions,WindDirDegrees,DateUTC
12:51 AM,64.9,41.0,42,30.01,10.0,ENE,9.2,-,N/A,,Partly Cloudy,70,2013-05-17 04:51:00
1:51 AM,63.0,39.9,43,30.02,10.0,ENE,6.9,-,N/A,,Scattered Clouds,60,2013-05-17 05:51:00
2:51 AM,60.1,39.9,47,30.02,10.0,NNE,4.6,-,N/A,,Partly Cloudy,20,2013-05-17 06:51:00
3:51 AM,57.0,44.1,62,30.03,10.0,NNE,5.8,-,N/A,,Partly Cloudy,30,2013-05-17 07:51:00
4:51 AM,55.9,45.0,67,30.04,10.0,East,3.5,-,N/A,,Partly Cloudy,80,2013-05-17 08:51:00
5:51 AM,57.9,37.9,47,30.06,10.0,ENE,5.8,-,N/A,,Partly Cloudy,60,2013-05-17 09:51:00
6:51 AM,57.9,37.9,47,30.09,10.0,ENE,5.8,-,N/A,,Partly Cloudy,60,2013-05-17 10:51:00
7:51 AM,61.0,39.0,44,30.10,10.0,ENE,8.1,-,N/A,,Partly Cloudy,60,2013-05-17 11:51:00
8:51 AM,64.9,39.0,39,30.11,10.0,East,9.2,-,N/A,,Scattered Clouds,100,2013-05-17 12:51:00
9:51 AM,66.9,39.9,37,30.12,10.0,East,9.2,-,N/A,,Scattered Clouds,90,2013-05-17 13:51:00
10:51 AM,71.1,43.0,36,30.12,10.0,Variable,5.8,-,N/A,,Partly Cloudy,0,2013-05-17 14:51:00
11:51 AM,69.1,50.0,51,30.13,10.0,North,11.5,-,N/A,,Partly Cloudy,10,2013-05-17 15:51:00
12:51 PM,66.9,48.9,52,30.12,10.0,NE,10.4,-,N/A,,Partly Cloudy,40,2013-05-17 16:51:00
1:51 PM,68.0,46.0,45,30.13,10.0,North,12.7,-,N/A,,Partly Cloudy,10,2013-05-17 17:51:00
2:51 PM,68.0,46.0,45,30.13,10.0,North,12.7,-,N/A,,Partly Cloudy,10,2013-05-17 18:51:00
3:51 PM,66.0,44.1,45,30.13,10.0,North,-9999.0,-,N/A,,Clear,0,2013-05-17 19:51:00
4:51 PM,66.9,41.0,39,30.11,10.0,NE,15.0,-,N/A,,Partly Cloudy,40,2013-05-17 20:51:00
5:51 PM,66.0,37.0,34,30.12,10.0,NNE,18.4,-,N/A,,Scattered Clouds,30,2013-05-17 21:51:00
6:51 PM,66.9,37.0,33,30.12,10.0,NE,16.1,-,N/A,,Scattered Clouds,40,2013-05-17 22:51:00
7:51 PM,64.0,39.9,41,30.12,10.0,NNE,11.5,-,N/A,,Scattered Clouds,20,2013-05-17 23:51:00
8:51 PM,61.0,42.1,50,30.13,10.0,North,9.2,-,N/A,,Mostly Cloudy,10,2013-05-18 00:51:00
9:51 PM,59.0,43.0,55,30.15,10.0,NNE,8.1,-,N/A,,Mostly Cloudy,20,2013-05-18 01:51:00
10:51 PM,57.0,44.1,62,30.15,10.0,NNE,5.8,-,N/A,,Scattered Clouds,30,2013-05-18 02:51:00
11:51 PM,61.0,41.0,48,30.14,10.0,NE,8.1,-,N/A,,Overcast,40,2013-05-18 03:51:00